sensor_id;sensor_type;location;lat;lon;timestamp;pressure;altitude;pressure_sealevel;temperature;humidity
20368;BME280;10343;52.402;9.796;2023-02-12T00:01:24;102892.53;;;11.10;100.00
20368;BME280;10343;52.402;9.796;2023-02-12T00:03:52;102896.19;;;11.19;100.00
20368;BME280;10343;52.402;9.796;2023-02-12T00:06:20;102894.44;;;11.23;100.00
20368;BME280;10343;52.402;9.796;2023-02-12T00:08:50;102891.31;;;10.77;100.00
20368;BME280;10343;52.402;9.796;2023-02-12T00:11:21;102894.16;;;10.94;100.00
20368;BME280;10343;52.402;9.796;2023-02-12T00:13:50;102891.72;;;11.17;100.00
20368;BME280;10343;52.402;9.796;2023-02-12T00:16:20;102892.78;;;11.34;100.00
20368;BME280;10343;52.402;9.796;2023-02-12T00:18:51;102907.63;;;11.14;100.00
20368;BME280;10343;52.402;9.796;2023-02-12T00:21:21;102905.72;;;11.00;100.00
20368;BME280;10343;52.402;9.796;2023-02-12T00:23:49;102910.25;;;11.08;100.00
20368;BME280;10343;52.402;9.796;2023-02-12T00:26:20;102914.88;;;11.32;100.00
20368;BME280;10343;52.402;9.796;2023-02-12T00:28:50;102919.88;;;10.99;100.00
20368;BME280;10343;52.402;9.796;2023-02-12T00:31:20;102903.69;;;10.75;100.00
20368;BME280;10343;52.402;9.796;2023-02-12T00:33:49;102905.44;;;10.76;100.00
20368;BME280;10343;52.402;9.796;2023-02-12T00:36:19;102897.59;;;10.86;100.00
20368;BME280;10343;52.402;9.796;2023-02-12T00:38:50;102891.34;;;10.80;100.00
20368;BME280;10343;52.402;9.796;2023-02-12T00:41:20;102898.53;;;10.87;100.00
20368;BME280;10343;52.402;9.796;2023-02-12T00:43:49;102881.31;;;10.52;100.00
20368;BME280;10343;52.402;9.796;2023-02-12T00:46:17;102877.00;;;10.62;100.00
20368;BME280;10343;52.402;9.796;2023-02-12T00:48:45;102894.97;;;10.88;100.00
20368;BME280;10343;52.402;9.796;2023-02-12T00:51:13;102879.69;;;10.65;100.00
20368;BME280;10343;52.402;9.796;2023-02-12T00:53:41;102889.66;;;10.88;100.00
20368;BME280;10343;52.402;9.796;2023-02-12T00:56:09;102876.78;;;10.44;100.00
20368;BME280;10343;52.402;9.796;2023-02-12T00:58:39;102879.75;;;10.71;100.00
20368;BME280;10343;52.402;9.796;2023-02-12T01:01:07;102893.53;;;11.21;100.00
20368;BME280;10343;52.402;9.796;2023-02-12T01:03:35;102896.56;;;10.69;100.00
20368;BME280;10343;52.402;9.796;2023-02-12T01:06:04;102886.72;;;10.62;100.00
20368;BME280;10343;52.402;9.796;2023-02-12T01:08:32;102895.75;;;10.79;100.00
20368;BME280;10343;52.402;9.796;2023-02-12T01:11:01;102893.91;;;10.70;100.00
20368;BME280;10343;52.402;9.796;2023-02-12T01:13:31;102893.81;;;10.64;100.00
20368;BME280;10343;52.402;9.796;2023-02-12T01:16:03;102892.41;;;10.94;100.00
20368;BME280;10343;52.402;9.796;2023-02-12T01:18:34;102906.75;;;11.12;100.00
20368;BME280;10343;52.402;9.796;2023-02-12T01:21:09;102916.47;;;11.13;100.00
20368;BME280;10343;52.402;9.796;2023-02-12T01:23:37;102905.72;;;11.00;100.00
20368;BME280;10343;52.402;9.796;2023-02-12T01:26:05;102899.34;;;10.83;100.00
20368;BME280;10343;52.402;9.796;2023-02-12T01:28:36;102903.03;;;10.96;100.00
20368;BME280;10343;52.402;9.796;2023-02-12T01:31:10;102907.53;;;11.04;100.00
20368;BME280;10343;52.402;9.796;2023-02-12T01:33:39;102899.25;;;10.74;100.00
20368;BME280;10343;52.402;9.796;2023-02-12T01:36:08;102902.72;;;10.69;100.00
20368;BME280;10343;52.402;9.796;2023-02-12T01:38:37;102882.06;;;10.42;100.00
20368;BME280;10343;52.402;9.796;2023-02-12T01:41:08;102893.94;;;10.75;100.00
20368;BME280;10343;52.402;9.796;2023-02-12T01:43:38;102910.03;;;10.91;100.00
20368;BME280;10343;52.402;9.796;2023-02-12T01:46:11;102917.50;;;11.27;100.00
20368;BME280;10343;52.402;9.796;2023-02-12T01:48:42;102918.78;;;10.80;100.00
20368;BME280;10343;52.402;9.796;2023-02-12T01:51:14;102923.59;;;11.17;100.00
20368;BME280;10343;52.402;9.796;2023-02-12T01:53:48;102918.81;;;10.83;100.00
20368;BME280;10343;52.402;9.796;2023-02-12T01:56:17;102926.28;;;11.20;100.00
20368;BME280;10343;52.402;9.796;2023-02-12T01:58:47;102920.75;;;11.00;100.00
20368;BME280;10343;52.402;9.796;2023-02-12T02:01:22;102933.22;;;11.09;100.00
20368;BME280;10343;52.402;9.796;2023-02-12T02:03:54;102920.72;;;10.94;100.00
20368;BME280;10343;52.402;9.796;2023-02-12T02:06:26;102912.38;;;10.61;100.00
20368;BME280;10343;52.402;9.796;2023-02-12T02:08:59;102915.97;;;10.66;100.00
20368;BME280;10343;52.402;9.796;2023-02-12T02:11:28;102913.16;;;10.52;100.00
20368;BME280;10343;52.402;9.796;2023-02-12T02:14:13;102913.38;;;10.74;100.00
20368;BME280;10343;52.402;9.796;2023-02-12T02:17:18;102913.59;;;10.91;100.00
20368;BME280;10343;52.402;9.796;2023-02-12T02:20:12;102908.94;;;10.71;100.00
20368;BME280;10343;52.402;9.796;2023-02-12T02:22:47;102907.13;;;10.67;100.00
20368;BME280;10343;52.402;9.796;2023-02-12T02:25:54;102926.06;;;10.98;100.00
20368;BME280;10343;52.402;9.796;2023-02-12T02:28:38;102915.34;;;10.92;100.00
20368;BME280;10343;52.402;9.796;2023-02-12T02:31:19;102915.28;;;10.84;100.00
20368;BME280;10343;52.402;9.796;2023-02-12T02:33:53;102901.81;;;10.67;100.00
20368;BME280;10343;52.402;9.796;2023-02-12T02:36:27;102908.59;;;10.44;100.00
20368;BME280;10343;52.402;9.796;2023-02-12T02:39:06;102918.78;;;10.79;100.00
20368;BME280;10343;52.402;9.796;2023-02-12T02:41:42;102926.41;;;10.51;100.00
20368;BME280;10343;52.402;9.796;2023-02-12T02:44:17;102917.97;;;10.86;100.00
20368;BME280;10343;52.402;9.796;2023-02-12T02:46:51;102922.47;;;10.95;100.00
20368;BME280;10343;52.402;9.796;2023-02-12T02:49:22;102923.25;;;10.83;100.00
20368;BME280;10343;52.402;9.796;2023-02-12T02:51:54;102915.91;;;10.63;100.00
20368;BME280;10343;52.402;9.796;2023-02-12T02:54:27;102928.94;;;11.20;100.00
20368;BME280;10343;52.402;9.796;2023-02-12T02:57:00;102922.75;;;10.43;100.00
20368;BME280;10343;52.402;9.796;2023-02-12T02:59:33;102933.44;;;11.26;100.00
20368;BME280;10343;52.402;9.796;2023-02-12T03:02:09;102939.50;;;11.14;100.00
20368;BME280;10343;52.402;9.796;2023-02-12T03:04:41;102938.75;;;11.26;100.00
20368;BME280;10343;52.402;9.796;2023-02-12T03:07:14;102936.13;;;11.33;100.00
20368;BME280;10343;52.402;9.796;2023-02-12T03:09:47;102924.97;;;10.81;100.00
20368;BME280;10343;52.402;9.796;2023-02-12T03:12:21;102932.09;;;10.85;100.00
20368;BME280;10343;52.402;9.796;2023-02-12T03:14:55;102931.03;;;10.69;100.00
20368;BME280;10343;52.402;9.796;2023-02-12T03:17:30;102937.25;;;10.73;100.00
20368;BME280;10343;52.402;9.796;2023-02-12T03:20:02;102926.34;;;9.88;100.00
20368;BME280;10343;52.402;9.796;2023-02-12T03:22:33;102927.97;;;10.36;100.00
20368;BME280;10343;52.402;9.796;2023-02-12T03:25:07;102922.69;;;10.40;100.00
20368;BME280;10343;52.402;9.796;2023-02-12T03:27:38;102940.00;;;10.77;100.00
20368;BME280;10343;52.402;9.796;2023-02-12T03:30:10;102953.41;;;10.91;100.00
20368;BME280;10343;52.402;9.796;2023-02-12T03:32:45;102940.81;;;10.10;100.00
20368;BME280;10343;52.402;9.796;2023-02-12T03:35:22;102929.03;;;9.91;100.00
20368;BME280;10343;52.402;9.796;2023-02-12T03:37:56;102919.84;;;9.67;100.00
20368;BME280;10343;52.402;9.796;2023-02-12T03:40:31;102928.09;;;10.46;100.00
20368;BME280;10343;52.402;9.796;2023-02-12T03:43:05;102943.84;;;10.35;100.00
20368;BME280;10343;52.402;9.796;2023-02-12T03:45:40;102942.78;;;10.24;100.00
20368;BME280;10343;52.402;9.796;2023-02-12T03:48:18;102958.22;;;10.51;100.00
20368;BME280;10343;52.402;9.796;2023-02-12T03:50:52;102964.47;;;10.56;100.00
20368;BME280;10343;52.402;9.796;2023-02-12T03:53:21;102973.44;;;10.66;100.00
20368;BME280;10343;52.402;9.796;2023-02-12T03:55:53;102974.41;;;10.73;100.00
20368;BME280;10343;52.402;9.796;2023-02-12T03:58:26;102979.72;;;10.73;100.00
20368;BME280;10343;52.402;9.796;2023-02-12T04:00:55;102971.44;;;10.49;100.00
20368;BME280;10343;52.402;9.796;2023-02-12T04:03:26;102969.94;;;10.09;100.00
20368;BME280;10343;52.402;9.796;2023-02-12T04:05:55;102987.75;;;10.79;100.00
20368;BME280;10343;52.402;9.796;2023-02-12T04:08:25;102988.16;;;10.44;100.00
20368;BME280;10343;52.402;9.796;2023-02-12T04:11:02;102976.63;;;10.40;100.00
20368;BME280;10343;52.402;9.796;2023-02-12T04:13:41;102984.88;;;10.63;100.00
20368;BME280;10343;52.402;9.796;2023-02-12T04:16:16;103002.78;;;10.80;100.00
20368;BME280;10343;52.402;9.796;2023-02-12T04:18:51;103005.75;;;10.37;100.00
20368;BME280;10343;52.402;9.796;2023-02-12T04:21:31;103000.91;;;10.69;100.00
20368;BME280;10343;52.402;9.796;2023-02-12T04:24:09;103000.06;;;10.74;100.00
20368;BME280;10343;52.402;9.796;2023-02-12T04:26:48;102989.69;;;10.29;100.00
20368;BME280;10343;52.402;9.796;2023-02-12T04:29:25;103008.03;;;10.74;100.00
20368;BME280;10343;52.402;9.796;2023-02-12T04:32:02;103022.44;;;10.93;100.00
20368;BME280;10343;52.402;9.796;2023-02-12T04:34:34;103032.97;;;10.88;100.00
20368;BME280;10343;52.402;9.796;2023-02-12T04:37:10;103024.94;;;10.82;100.00
20368;BME280;10343;52.402;9.796;2023-02-12T04:39:40;103029.59;;;10.98;100.00
20368;BME280;10343;52.402;9.796;2023-02-12T04:42:09;103024.84;;;10.76;100.00
20368;BME280;10343;52.402;9.796;2023-02-12T04:44:38;103025.13;;;10.96;100.00
20368;BME280;10343;52.402;9.796;2023-02-12T04:47:07;103028.47;;;10.81;100.00
20368;BME280;10343;52.402;9.796;2023-02-12T04:49:36;103025.50;;;10.59;100.00
20368;BME280;10343;52.402;9.796;2023-02-12T04:52:04;103026.69;;;10.80;100.00
20368;BME280;10343;52.402;9.796;2023-02-12T04:54:33;103024.31;;;11.01;100.00
20368;BME280;10343;52.402;9.796;2023-02-12T04:57:01;103033.06;;;10.94;100.00
20368;BME280;10343;52.402;9.796;2023-02-12T04:59:29;103018.94;;;10.95;100.00
20368;BME280;10343;52.402;9.796;2023-02-12T05:01:57;103021.66;;;11.03;100.00
20368;BME280;10343;52.402;9.796;2023-02-12T05:04:25;103029.63;;;11.01;100.00
20368;BME280;10343;52.402;9.796;2023-02-12T05:06:55;103027.88;;;11.03;100.00
20368;BME280;10343;52.402;9.796;2023-02-12T05:09:23;103027.91;;;11.07;100.00
20368;BME280;10343;52.402;9.796;2023-02-12T05:11:51;103026.06;;;10.99;100.00
20368;BME280;10343;52.402;9.796;2023-02-12T05:14:19;103026.06;;;10.99;100.00
20368;BME280;10343;52.402;9.796;2023-02-12T05:16:47;103027.63;;;10.85;100.00
20368;BME280;10343;52.402;9.796;2023-02-12T05:19:15;103024.94;;;10.80;100.00
20368;BME280;10343;52.402;9.796;2023-02-12T05:21:48;103036.56;;;10.90;100.00
20368;BME280;10343;52.402;9.796;2023-02-12T05:24:18;103037.53;;;10.97;100.00
20368;BME280;10343;52.402;9.796;2023-02-12T05:26:47;103038.56;;;11.10;100.00
20368;BME280;10343;52.402;9.796;2023-02-12T05:29:16;103033.19;;;11.03;100.00
20368;BME280;10343;52.402;9.796;2023-02-12T05:31:44;103040.53;;;11.25;100.00
20368;BME280;10343;52.402;9.796;2023-02-12T05:34:13;103041.47;;;11.28;100.00
20368;BME280;10343;52.402;9.796;2023-02-12T05:36:41;103036.88;;;11.15;100.00
20368;BME280;10343;52.402;9.796;2023-02-12T05:39:09;103043.19;;;11.26;100.00
20368;BME280;10343;52.402;9.796;2023-02-12T05:41:39;103043.31;;;10.66;100.00
20368;BME280;10343;52.402;9.796;2023-02-12T05:44:07;103046.47;;;11.03;100.00
20368;BME280;10343;52.402;9.796;2023-02-12T05:46:37;103045.38;;;10.89;100.00
20368;BME280;10343;52.402;9.796;2023-02-12T05:49:06;103045.50;;;10.98;100.00
20368;BME280;10343;52.402;9.796;2023-02-12T05:51:34;103053.00;;;11.33;100.00
20368;BME280;10343;52.402;9.796;2023-02-12T05:54:05;103045.38;;;10.87;100.00
20368;BME280;10343;52.402;9.796;2023-02-12T05:56:34;103052.81;;;11.15;100.00
20368;BME280;10343;52.402;9.796;2023-02-12T05:59:06;103058.16;;;11.21;100.00
20368;BME280;10343;52.402;9.796;2023-02-12T06:01:36;103051.53;;;10.86;100.00
20368;BME280;10343;52.402;9.796;2023-02-12T06:04:06;103050.72;;;10.92;100.00
20368;BME280;10343;52.402;9.796;2023-02-12T06:06:35;103049.00;;;10.94;100.00
20368;BME280;10343;52.402;9.796;2023-02-12T06:09:03;103057.06;;;11.02;100.00
20368;BME280;10343;52.402;9.796;2023-02-12T06:11:31;103052.44;;;10.87;100.00
20368;BME280;10343;52.402;9.796;2023-02-12T06:14:01;103060.50;;;10.96;100.00
20368;BME280;10343;52.402;9.796;2023-02-12T06:16:32;103055.81;;;10.74;100.00
20368;BME280;10343;52.402;9.796;2023-02-12T06:19:02;103043.56;;;10.85;100.00
20368;BME280;10343;52.402;9.796;2023-02-12T06:21:31;103057.81;;;10.92;100.00
20368;BME280;10343;52.402;9.796;2023-02-12T06:24:00;103063.31;;;11.09;100.00
20368;BME280;10343;52.402;9.796;2023-02-12T06:26:28;103066.94;;;11.14;100.00
20368;BME280;10343;52.402;9.796;2023-02-12T06:28:56;103059.47;;;10.85;100.00
20368;BME280;10343;52.402;9.796;2023-02-12T06:31:27;103067.13;;;11.31;100.00
20368;BME280;10343;52.402;9.796;2023-02-12T06:33:59;103068.69;;;11.12;100.00
20368;BME280;10343;52.402;9.796;2023-02-12T06:36:28;103066.78;;;11.01;100.00
20368;BME280;10343;52.402;9.796;2023-02-12T06:38:57;103064.91;;;10.93;100.00
20368;BME280;10343;52.402;9.796;2023-02-12T06:41:26;103053.16;;;10.74;100.00
20368;BME280;10343;52.402;9.796;2023-02-12T06:43:54;103064.72;;;10.79;100.00
20368;BME280;10343;52.402;9.796;2023-02-12T06:46:23;103072.09;;;11.01;100.00
20368;BME280;10343;52.402;9.796;2023-02-12T06:48:52;103075.28;;;10.76;100.00
20368;BME280;10343;52.402;9.796;2023-02-12T06:51:25;103081.16;;;11.16;100.00
20368;BME280;10343;52.402;9.796;2023-02-12T06:53:54;103073.00;;;11.02;100.00
20368;BME280;10343;52.402;9.796;2023-02-12T06:56:25;103089.16;;;11.20;100.00
20368;BME280;10343;52.402;9.796;2023-02-12T06:58:55;103091.75;;;11.16;100.00
20368;BME280;10343;52.402;9.796;2023-02-12T07:01:26;103088.22;;;11.17;100.00
20368;BME280;10343;52.402;9.796;2023-02-12T07:03:56;103096.16;;;11.15;100.00
20368;BME280;10343;52.402;9.796;2023-02-12T07:06:27;103091.53;;;10.99;100.00
20368;BME280;10343;52.402;9.796;2023-02-12T07:09:00;103094.56;;;11.28;100.00
20368;BME280;10343;52.402;9.796;2023-02-12T07:11:31;103095.44;;;11.27;100.00
20368;BME280;10343;52.402;9.796;2023-02-12T07:14:04;103097.00;;;11.13;100.00
20368;BME280;10343;52.402;9.796;2023-02-12T07:16:33;103095.91;;;10.95;100.00
20368;BME280;10343;52.402;9.796;2023-02-12T07:19:01;103097.81;;;11.05;100.00
20368;BME280;10343;52.402;9.796;2023-02-12T07:21:32;103102.38;;;11.16;100.00
20368;BME280;10343;52.402;9.796;2023-02-12T07:24:00;103105.94;;;11.18;100.00
20368;BME280;10343;52.402;9.796;2023-02-12T07:26:28;103107.56;;;11.07;100.00
20368;BME280;10343;52.402;9.796;2023-02-12T07:28:56;103114.16;;;11.38;100.00
20368;BME280;10343;52.402;9.796;2023-02-12T07:31:25;103115.78;;;11.27;100.00
20368;BME280;10343;52.402;9.796;2023-02-12T07:33:54;103110.56;;;11.33;100.00
20368;BME280;10343;52.402;9.796;2023-02-12T07:36:24;103110.28;;;11.13;100.00
20368;BME280;10343;52.402;9.796;2023-02-12T07:38:55;103105.19;;;11.28;100.00
20368;BME280;10343;52.402;9.796;2023-02-12T07:41:25;103116.84;;;11.39;100.00
20368;BME280;10343;52.402;9.796;2023-02-12T07:43:54;103116.97;;;11.49;100.00
20368;BME280;10343;52.402;9.796;2023-02-12T07:46:25;103118.84;;;11.59;100.00
20368;BME280;10343;52.402;9.796;2023-02-12T07:48:59;103123.16;;;11.51;100.00
20368;BME280;10343;52.402;9.796;2023-02-12T07:51:27;103132.69;;;12.10;100.00
20368;BME280;10343;52.402;9.796;2023-02-12T07:53:57;103139.22;;;11.60;100.00
20368;BME280;10343;52.402;9.796;2023-02-12T07:56:29;103137.97;;;11.30;100.00
20368;BME280;10343;52.402;9.796;2023-02-12T07:58:59;103126.13;;;11.79;100.00
20368;BME280;10343;52.402;9.796;2023-02-12T08:01:30;103129.59;;;11.68;100.00
20368;BME280;10343;52.402;9.796;2023-02-12T08:03:59;103132.41;;;11.84;100.00
20368;BME280;10343;52.402;9.796;2023-02-12T08:06:30;103132.28;;;11.75;100.00
20368;BME280;10343;52.402;9.796;2023-02-12T08:09:01;103126.13;;;11.79;100.00
20368;BME280;10343;52.402;9.796;2023-02-12T08:11:29;103134.22;;;11.89;100.00
20368;BME280;10343;52.402;9.796;2023-02-12T08:13:59;103112.03;;;11.11;100.00
20368;BME280;10343;52.402;9.796;2023-02-12T08:16:28;103128.56;;;11.57;100.00
20368;BME280;10343;52.402;9.796;2023-02-12T08:18:57;103121.59;;;11.67;100.00
20368;BME280;10343;52.402;9.796;2023-02-12T08:21:42;103128.75;;;11.74;100.00
20368;BME280;10343;52.402;9.796;2023-02-12T08:24:12;103129.84;;;11.93;100.00
20368;BME280;10343;52.402;9.796;2023-02-12T08:26:40;103134.28;;;11.94;100.00
20368;BME280;10343;52.402;9.796;2023-02-12T08:29:10;103132.97;;;11.55;100.00
20368;BME280;10343;52.402;9.796;2023-02-12T08:31:40;103140.22;;;11.71;100.00
20368;BME280;10343;52.402;9.796;2023-02-12T08:34:15;103138.25;;;11.52;100.00
20368;BME280;10343;52.402;9.796;2023-02-12T08:36:46;103143.63;;;11.58;100.00
20368;BME280;10343;52.402;9.796;2023-02-12T08:39:16;103151.97;;;11.92;100.00
20368;BME280;10343;52.402;9.796;2023-02-12T08:41:44;103153.69;;;11.85;100.00
20368;BME280;10343;52.402;9.796;2023-02-12T08:44:13;103150.16;;;11.86;100.00
20368;BME280;10343;52.402;9.796;2023-02-12T08:46:43;103151.28;;;12.05;100.00
20368;BME280;10343;52.402;9.796;2023-02-12T08:49:14;103163.47;;;11.91;100.00
20368;BME280;10343;52.402;9.796;2023-02-12T08:51:44;103163.66;;;12.06;100.00
20368;BME280;10343;52.402;9.796;2023-02-12T08:54:19;103169.50;;;11.75;100.00
20368;BME280;10343;52.402;9.796;2023-02-12T08:56:48;103174.09;;;11.89;100.00
20368;BME280;10343;52.402;9.796;2023-02-12T08:59:17;103172.69;;;12.21;100.00
20368;BME280;10343;52.402;9.796;2023-02-12T09:01:45;103185.28;;;12.40;100.00
20368;BME280;10343;52.402;9.796;2023-02-12T09:04:19;103184.19;;;12.20;100.00
20368;BME280;10343;52.402;9.796;2023-02-12T09:06:50;103192.16;;;12.17;100.00
20368;BME280;10343;52.402;9.796;2023-02-12T09:09:24;103208.38;;;12.43;100.00
20368;BME280;10343;52.402;9.796;2023-02-12T09:11:52;103206.66;;;12.47;100.00
20368;BME280;10343;52.402;9.796;2023-02-12T09:14:22;103185.59;;;11.88;100.00
20368;BME280;10343;52.402;9.796;2023-02-12T09:16:51;103201.09;;;12.25;100.00
20368;BME280;10343;52.402;9.796;2023-02-12T09:19:20;103211.47;;;11.99;100.00
20368;BME280;10343;52.402;9.796;2023-02-12T09:21:50;103216.97;;;12.16;100.00
20368;BME280;10343;52.402;9.796;2023-02-12T09:24:23;103200.03;;;12.06;100.00
20368;BME280;10343;52.402;9.796;2023-02-12T09:26:53;103209.19;;;12.33;100.00
20368;BME280;10343;52.402;9.796;2023-02-12T09:29:28;103212.97;;;12.63;100.00
20368;BME280;10343;52.402;9.796;2023-02-12T09:31:58;103218.19;;;12.49;100.00
20368;BME280;10343;52.402;9.796;2023-02-12T09:34:35;103204.63;;;12.24;100.00
20368;BME280;10343;52.402;9.796;2023-02-12T09:37:03;103206.66;;;11.70;100.00
20368;BME280;10343;52.402;9.796;2023-02-12T09:39:33;103207.97;;;12.01;100.00
20368;BME280;10343;52.402;9.796;2023-02-12T09:42:18;103193.38;;;11.70;100.00
20368;BME280;10343;52.402;9.796;2023-02-12T09:44:57;103220.94;;;12.61;100.00
20368;BME280;10343;52.402;9.796;2023-02-12T09:47:32;103229.69;;;12.48;100.00
20368;BME280;10343;52.402;9.796;2023-02-12T09:50:11;103214.16;;;12.02;100.00
20368;BME280;10343;52.402;9.796;2023-02-12T09:52:44;103213.53;;;11.54;100.00
20368;BME280;10343;52.402;9.796;2023-02-12T09:55:16;103200.00;;;11.34;100.00
20368;BME280;10343;52.402;9.796;2023-02-12T09:57:45;103210.00;;;11.53;100.00
20368;BME280;10343;52.402;9.796;2023-02-12T10:00:16;103213.94;;;11.85;100.00
20368;BME280;10343;52.402;9.796;2023-02-12T10:02:52;103223.28;;;12.26;100.00
20368;BME280;10343;52.402;9.796;2023-02-12T10:05:28;103236.28;;;12.88;100.00
20368;BME280;10343;52.402;9.796;2023-02-12T10:08:17;103233.75;;;12.09;100.00
20368;BME280;10343;52.402;9.796;2023-02-12T10:11:03;103215.19;;;11.46;100.00
20368;BME280;10343;52.402;9.796;2023-02-12T10:13:42;103227.56;;;12.13;100.00
20368;BME280;10343;52.402;9.796;2023-02-12T10:16:28;103238.53;;;12.44;100.00
20368;BME280;10343;52.402;9.796;2023-02-12T10:19:19;103253.88;;;12.72;100.00
20368;BME280;10343;52.402;9.796;2023-02-12T10:21:58;103249.59;;;12.91;98.58
20368;BME280;10343;52.402;9.796;2023-02-12T10:24:52;103263.00;;;13.01;96.03
20368;BME280;10343;52.402;9.796;2023-02-12T10:27:35;103260.22;;;12.85;95.00
20368;BME280;10343;52.402;9.796;2023-02-12T10:30:17;103256.38;;;12.54;98.46
20368;BME280;10343;52.402;9.796;2023-02-12T10:32:50;103256.38;;;12.54;99.40
20368;BME280;10343;52.402;9.796;2023-02-12T10:35:20;103252.13;;;12.73;98.51
20368;BME280;10343;52.402;9.796;2023-02-12T10:37:54;103261.97;;;12.83;95.84
20368;BME280;10343;52.402;9.796;2023-02-12T10:40:26;103259.28;;;12.82;96.32
20368;BME280;10343;52.402;9.796;2023-02-12T10:42:58;103256.38;;;12.54;98.84
20368;BME280;10343;52.402;9.796;2023-02-12T10:45:29;103250.09;;;12.47;98.72
20368;BME280;10343;52.402;9.796;2023-02-12T10:48:10;103254.78;;;12.74;97.35
20368;BME280;10343;52.402;9.796;2023-02-12T10:51:24;103264.78;;;13.02;94.21
20368;BME280;10343;52.402;9.796;2023-02-12T10:54:33;103275.75;;;13.40;90.79
20368;BME280;10343;52.402;9.796;2023-02-12T10:57:07;103277.50;;;13.37;89.24
20368;BME280;10343;52.402;9.796;2023-02-12T10:59:38;103278.13;;;13.08;90.52
20368;BME280;10343;52.402;9.796;2023-02-12T11:02:18;103262.91;;;12.91;92.63
20368;BME280;10343;52.402;9.796;2023-02-12T11:04:47;103271.44;;;13.67;88.82
20368;BME280;10343;52.402;9.796;2023-02-12T11:07:16;103268.31;;;13.01;90.80
20368;BME280;10343;52.402;9.796;2023-02-12T11:09:45;103266.97;;;13.57;88.11
20368;BME280;10343;52.402;9.796;2023-02-12T11:12:19;103271.44;;;13.67;87.29
20368;BME280;10343;52.402;9.796;2023-02-12T11:14:51;103263.19;;;13.29;89.50
20368;BME280;10343;52.402;9.796;2023-02-12T11:17:24;103264.25;;;13.54;87.24
20368;BME280;10343;52.402;9.796;2023-02-12T11:20:07;103268.44;;;13.15;87.77
20368;BME280;10343;52.402;9.796;2023-02-12T11:22:55;103255.03;;;13.05;91.04
20368;BME280;10343;52.402;9.796;2023-02-12T11:25:24;103262.16;;;13.06;90.73
20368;BME280;10343;52.402;9.796;2023-02-12T11:28:13;103257.09;;;13.40;89.23
20368;BME280;10343;52.402;9.796;2023-02-12T11:30:51;103250.72;;;13.23;90.21
20368;BME280;10343;52.402;9.796;2023-02-12T11:33:26;103249.84;;;13.22;90.70
20368;BME280;10343;52.402;9.796;2023-02-12T11:35:57;103250.06;;;13.55;89.01
20368;BME280;10343;52.402;9.796;2023-02-12T11:38:30;103252.84;;;13.80;85.99
20368;BME280;10343;52.402;9.796;2023-02-12T11:41:03;103251.97;;;13.84;83.99
20368;BME280;10343;52.402;9.796;2023-02-12T11:43:35;103251.03;;;13.77;83.60
20368;BME280;10343;52.402;9.796;2023-02-12T11:46:06;103249.75;;;13.12;86.80
20368;BME280;10343;52.402;9.796;2023-02-12T11:48:37;103240.81;;;13.00;90.02
20368;BME280;10343;52.402;9.796;2023-02-12T11:51:08;103249.38;;;14.05;82.94
20368;BME280;10343;52.402;9.796;2023-02-12T11:53:40;103240.28;;;12.38;91.20
20368;BME280;10343;52.402;9.796;2023-02-12T11:56:11;103238.28;;;13.25;89.95
20368;BME280;10343;52.402;9.796;2023-02-12T11:58:40;103249.25;;;13.71;83.98
20368;BME280;10343;52.402;9.796;2023-02-12T12:01:16;103251.22;;;14.25;80.96
20368;BME280;10343;52.402;9.796;2023-02-12T12:03:53;103245.84;;;14.16;81.19
20368;BME280;10343;52.402;9.796;2023-02-12T12:06:32;103236.00;;;13.93;81.73
20368;BME280;10343;52.402;9.796;2023-02-12T12:09:04;103230.53;;;13.56;84.46
20368;BME280;10343;52.402;9.796;2023-02-12T12:11:40;103240.31;;;13.65;84.12
20368;BME280;10343;52.402;9.796;2023-02-12T12:14:16;103237.53;;;13.40;85.26
20368;BME280;10343;52.402;9.796;2023-02-12T12:16:51;103237.66;;;13.63;85.16
20368;BME280;10343;52.402;9.796;2023-02-12T12:19:44;103234.06;;;13.58;85.32
20368;BME280;10343;52.402;9.796;2023-02-12T12:22:37;103235.91;;;13.68;84.14
20368;BME280;10343;52.402;9.796;2023-02-12T12:25:14;103228.56;;;13.33;85.75
20368;BME280;10343;52.402;9.796;2023-02-12T12:27:55;103224.97;;;13.25;88.46
20368;BME280;10343;52.402;9.796;2023-02-12T12:30:39;103230.41;;;13.37;86.56
20368;BME280;10343;52.402;9.796;2023-02-12T12:33:15;103221.13;;;12.83;91.11
20368;BME280;10343;52.402;9.796;2023-02-12T12:35:49;103223.22;;;13.29;88.58
20368;BME280;10343;52.402;9.796;2023-02-12T12:38:30;103217.78;;;13.08;90.40
20368;BME280;10343;52.402;9.796;2023-02-12T12:41:03;103214.31;;;13.25;89.50
20368;BME280;10343;52.402;9.796;2023-02-12T12:43:44;103212.38;;;12.98;92.74
20368;BME280;10343;52.402;9.796;2023-02-12T12:46:33;103210.75;;;13.17;91.49
20368;BME280;10343;52.402;9.796;2023-02-12T12:49:24;103210.88;;;13.38;89.85
20368;BME280;10343;52.402;9.796;2023-02-12T12:52:20;103206.47;;;13.40;88.64
20368;BME280;10343;52.402;9.796;2023-02-12T12:55:06;103197.44;;;13.21;90.52
20368;BME280;10343;52.402;9.796;2023-02-12T12:57:46;103200.00;;;13.07;91.12
20368;BME280;10343;52.402;9.796;2023-02-12T13:00:29;103186.38;;;12.66;94.32
20368;BME280;10343;52.402;9.796;2023-02-12T13:03:27;103188.16;;;12.67;95.94
20368;BME280;10343;52.402;9.796;2023-02-12T13:06:37;103189.19;;;12.80;94.32
20368;BME280;10343;52.402;9.796;2023-02-12T13:09:28;103192.09;;;13.18;91.38
20368;BME280;10343;52.402;9.796;2023-02-12T13:15:00;103186.78;;;13.18;90.72
20368;BME280;10343;52.402;9.796;2023-02-12T13:17:33;103180.34;;;12.90;92.57